sensor_id;sensor_type;location;lat;lon;timestamp;P1;durP1;ratioP1;P2;durP2;ratioP2
6442;SDS011;3254;47.372;8.512;2023-02-18T00:00:12;12.40;;;7.47;;
6442;SDS011;3254;47.372;8.512;2023-02-18T00:02:45;11.27;;;8.57;;
6442;SDS011;3254;47.372;8.512;2023-02-18T00:05:11;16.17;;;7.63;;
6442;SDS011;3254;47.372;8.512;2023-02-18T00:07:38;9.60;;;7.70;;
6442;SDS011;3254;47.372;8.512;2023-02-18T00:10:05;7.90;;;7.03;;
6442;SDS011;3254;47.372;8.512;2023-02-18T00:12:35;10.80;;;7.20;;
6442;SDS011;3254;47.372;8.512;2023-02-18T00:15:00;13.20;;;7.80;;
6442;SDS011;3254;47.372;8.512;2023-02-18T00:17:28;12.53;;;6.93;;
6442;SDS011;3254;47.372;8.512;2023-02-18T00:19:53;9.77;;;6.50;;
6442;SDS011;3254;47.372;8.512;2023-02-18T00:22:21;18.53;;;8.00;;
6442;SDS011;3254;47.372;8.512;2023-02-18T00:24:47;10.57;;;7.70;;
6442;SDS011;3254;47.372;8.512;2023-02-18T00:27:13;10.17;;;7.20;;
6442;SDS011;3254;47.372;8.512;2023-02-18T00:29:39;13.70;;;7.53;;
6442;SDS011;3254;47.372;8.512;2023-02-18T00:32:04;13.07;;;7.27;;
6442;SDS011;3254;47.372;8.512;2023-02-18T00:34:30;7.43;;;6.60;;
6442;SDS011;3254;47.372;8.512;2023-02-18T00:36:56;8.80;;;5.63;;
6442;SDS011;3254;47.372;8.512;2023-02-18T00:39:22;8.90;;;5.80;;
6442;SDS011;3254;47.372;8.512;2023-02-18T00:41:47;5.73;;;5.23;;
6442;SDS011;3254;47.372;8.512;2023-02-18T00:44:13;8.60;;;6.00;;
6442;SDS011;3254;47.372;8.512;2023-02-18T00:46:40;9.30;;;5.37;;
6442;SDS011;3254;47.372;8.512;2023-02-18T00:49:06;6.00;;;5.13;;
6442;SDS011;3254;47.372;8.512;2023-02-18T00:51:33;5.33;;;4.93;;
6442;SDS011;3254;47.372;8.512;2023-02-18T00:53:59;5.07;;;4.67;;
6442;SDS011;3254;47.372;8.512;2023-02-18T00:56:25;4.73;;;4.23;;
6442;SDS011;3254;47.372;8.512;2023-02-18T00:58:51;5.30;;;4.77;;
6442;SDS011;3254;47.372;8.512;2023-02-18T01:01:17;5.00;;;4.70;;
6442;SDS011;3254;47.372;8.512;2023-02-18T01:03:43;6.70;;;4.63;;
6442;SDS011;3254;47.372;8.512;2023-02-18T01:06:10;5.30;;;4.83;;
6442;SDS011;3254;47.372;8.512;2023-02-18T01:08:37;4.70;;;4.40;;
6442;SDS011;3254;47.372;8.512;2023-02-18T01:11:05;6.00;;;4.33;;
6442;SDS011;3254;47.372;8.512;2023-02-18T01:13:32;5.83;;;4.70;;
6442;SDS011;3254;47.372;8.512;2023-02-18T01:15:58;7.93;;;4.47;;
6442;SDS011;3254;47.372;8.512;2023-02-18T01:18:24;5.50;;;4.80;;
6442;SDS011;3254;47.372;8.512;2023-02-18T01:20:50;4.70;;;4.40;;
6442;SDS011;3254;47.372;8.512;2023-02-18T01:23:18;8.17;;;5.07;;
6442;SDS011;3254;47.372;8.512;2023-02-18T01:25:43;5.03;;;4.70;;
6442;SDS011;3254;47.372;8.512;2023-02-18T01:28:10;5.73;;;5.10;;
6442;SDS011;3254;47.372;8.512;2023-02-18T01:30:36;4.53;;;4.13;;
6442;SDS011;3254;47.372;8.512;2023-02-18T01:33:02;5.20;;;4.80;;
6442;SDS011;3254;47.372;8.512;2023-02-18T01:35:29;5.13;;;4.67;;
6442;SDS011;3254;47.372;8.512;2023-02-18T01:37:55;4.83;;;4.40;;
6442;SDS011;3254;47.372;8.512;2023-02-18T01:40:22;4.47;;;4.17;;
6442;SDS011;3254;47.372;8.512;2023-02-18T01:42:50;4.80;;;4.40;;
6442;SDS011;3254;47.372;8.512;2023-02-18T01:47:57;5.40;;;5.00;;
6442;SDS011;3254;47.372;8.512;2023-02-18T01:50:29;12.10;;;6.37;;
6442;SDS011;3254;47.372;8.512;2023-02-18T01:52:57;7.60;;;6.50;;
6442;SDS011;3254;47.372;8.512;2023-02-18T01:55:23;5.73;;;5.23;;
6442;SDS011;3254;47.372;8.512;2023-02-18T01:57:48;11.40;;;9.30;;
6442;SDS011;3254;47.372;8.512;2023-02-18T02:00:15;7.70;;;7.00;;
6442;SDS011;3254;47.372;8.512;2023-02-18T02:02:46;9.13;;;7.23;;
6442;SDS011;3254;47.372;8.512;2023-02-18T02:05:18;9.47;;;7.70;;
6442;SDS011;3254;47.372;8.512;2023-02-18T02:07:48;11.17;;;6.97;;
6442;SDS011;3254;47.372;8.512;2023-02-18T02:10:16;9.40;;;7.70;;
6442;SDS011;3254;47.372;8.512;2023-02-18T02:17:57;8.07;;;7.37;;
6442;SDS011;3254;47.372;8.512;2023-02-18T02:23:29;9.73;;;7.03;;
6442;SDS011;3254;47.372;8.512;2023-02-18T02:32:00;6.10;;;4.93;;
6442;SDS011;3254;47.372;8.512;2023-02-18T02:34:51;7.40;;;6.63;;
6442;SDS011;3254;47.372;8.512;2023-02-18T02:46:30;7.23;;;5.53;;
6442;SDS011;3254;47.372;8.512;2023-02-18T02:54:44;4.60;;;4.30;;
6442;SDS011;3254;47.372;8.512;2023-02-18T02:59:55;8.17;;;5.47;;
6442;SDS011;3254;47.372;8.512;2023-02-18T03:05:02;7.23;;;5.10;;
6442;SDS011;3254;47.372;8.512;2023-02-18T03:10:53;5.50;;;3.77;;
6442;SDS011;3254;47.372;8.512;2023-02-18T03:16:00;4.23;;;3.83;;
6442;SDS011;3254;47.372;8.512;2023-02-18T03:18:50;3.97;;;3.67;;
6442;SDS011;3254;47.372;8.512;2023-02-18T03:21:29;3.83;;;3.63;;
6442;SDS011;3254;47.372;8.512;2023-02-18T03:24:09;4.00;;;3.40;;
6442;SDS011;3254;47.372;8.512;2023-02-18T03:26:39;9.00;;;3.70;;
6442;SDS011;3254;47.372;8.512;2023-02-18T03:29:13;4.63;;;4.23;;
6442;SDS011;3254;47.372;8.512;2023-02-18T03:31:41;4.60;;;3.87;;
6442;SDS011;3254;47.372;8.512;2023-02-18T03:34:11;4.83;;;4.47;;
6442;SDS011;3254;47.372;8.512;2023-02-18T03:36:41;3.83;;;3.60;;
6442;SDS011;3254;47.372;8.512;2023-02-18T03:39:08;5.53;;;4.17;;
6442;SDS011;3254;47.372;8.512;2023-02-18T03:41:38;4.50;;;4.20;;
6442;SDS011;3254;47.372;8.512;2023-02-18T03:44:04;4.07;;;3.70;;
6442;SDS011;3254;47.372;8.512;2023-02-18T03:46:31;5.20;;;3.60;;
6442;SDS011;3254;47.372;8.512;2023-02-18T03:48:58;5.30;;;3.90;;
6442;SDS011;3254;47.372;8.512;2023-02-18T03:51:24;3.97;;;3.67;;
6442;SDS011;3254;47.372;8.512;2023-02-18T03:53:50;6.27;;;4.00;;
6442;SDS011;3254;47.372;8.512;2023-02-18T03:56:16;11.43;;;3.80;;
6442;SDS011;3254;47.372;8.512;2023-02-18T03:58:42;7.40;;;4.20;;
6442;SDS011;3254;47.372;8.512;2023-02-18T04:01:08;4.90;;;4.50;;
6442;SDS011;3254;47.372;8.512;2023-02-18T04:03:33;3.77;;;3.37;;
6442;SDS011;3254;47.372;8.512;2023-02-18T04:05:59;4.10;;;3.83;;
6442;SDS011;3254;47.372;8.512;2023-02-18T04:08:27;9.70;;;3.20;;
6442;SDS011;3254;47.372;8.512;2023-02-18T04:10:53;5.73;;;3.67;;
6442;SDS011;3254;47.372;8.512;2023-02-18T04:13:19;3.60;;;3.40;;
6442;SDS011;3254;47.372;8.512;2023-02-18T04:15:49;4.60;;;3.73;;
6442;SDS011;3254;47.372;8.512;2023-02-18T04:18:15;5.47;;;3.40;;
6442;SDS011;3254;47.372;8.512;2023-02-18T04:20:41;4.10;;;3.80;;
6442;SDS011;3254;47.372;8.512;2023-02-18T04:23:07;3.70;;;3.40;;
6442;SDS011;3254;47.372;8.512;2023-02-18T04:25:33;11.50;;;2.80;;
6442;SDS011;3254;47.372;8.512;2023-02-18T04:27:58;5.30;;;3.03;;
6442;SDS011;3254;47.372;8.512;2023-02-18T04:30:24;3.67;;;3.37;;
6442;SDS011;3254;47.372;8.512;2023-02-18T04:32:50;6.50;;;3.60;;
6442;SDS011;3254;47.372;8.512;2023-02-18T04:35:17;7.83;;;2.90;;
6442;SDS011;3254;47.372;8.512;2023-02-18T04:37:44;3.80;;;3.00;;
6442;SDS011;3254;47.372;8.512;2023-02-18T04:40:10;3.30;;;3.10;;
6442;SDS011;3254;47.372;8.512;2023-02-18T04:42:37;7.60;;;2.97;;
6442;SDS011;3254;47.372;8.512;2023-02-18T04:45:04;4.33;;;3.13;;
6442;SDS011;3254;47.372;8.512;2023-02-18T04:47:32;3.30;;;3.10;;
6442;SDS011;3254;47.372;8.512;2023-02-18T04:50:00;3.23;;;3.03;;
6442;SDS011;3254;47.372;8.512;2023-02-18T04:52:26;5.47;;;3.47;;
6442;SDS011;3254;47.372;8.512;2023-02-18T04:54:52;5.20;;;3.00;;
6442;SDS011;3254;47.372;8.512;2023-02-18T04:57:18;3.40;;;3.17;;
6442;SDS011;3254;47.372;8.512;2023-02-18T04:59:44;3.27;;;3.07;;
6442;SDS011;3254;47.372;8.512;2023-02-18T05:02:11;3.30;;;2.63;;
6442;SDS011;3254;47.372;8.512;2023-02-18T05:04:37;3.20;;;3.00;;
6442;SDS011;3254;47.372;8.512;2023-02-18T05:07:04;3.70;;;3.40;;
6442;SDS011;3254;47.372;8.512;2023-02-18T05:09:29;2.70;;;2.50;;
6442;SDS011;3254;47.372;8.512;2023-02-18T05:11:55;3.47;;;3.27;;
6442;SDS011;3254;47.372;8.512;2023-02-18T05:14:21;3.40;;;3.20;;
6442;SDS011;3254;47.372;8.512;2023-02-18T05:16:47;2.97;;;2.77;;
6442;SDS011;3254;47.372;8.512;2023-02-18T05:19:13;3.50;;;2.90;;
6442;SDS011;3254;47.372;8.512;2023-02-18T05:21:39;4.33;;;2.90;;
6442;SDS011;3254;47.372;8.512;2023-02-18T05:24:06;3.00;;;2.80;;
6442;SDS011;3254;47.372;8.512;2023-02-18T05:26:33;2.90;;;2.63;;
6442;SDS011;3254;47.372;8.512;2023-02-18T05:28:59;3.40;;;3.10;;
6442;SDS011;3254;47.372;8.512;2023-02-18T05:31:25;5.20;;;2.80;;
6442;SDS011;3254;47.372;8.512;2023-02-18T05:33:51;3.10;;;2.90;;
6442;SDS011;3254;47.372;8.512;2023-02-18T05:36:16;3.77;;;3.57;;
6442;SDS011;3254;47.372;8.512;2023-02-18T05:38:42;3.03;;;2.83;;
6442;SDS011;3254;47.372;8.512;2023-02-18T05:41:07;4.53;;;3.63;;
6442;SDS011;3254;47.372;8.512;2023-02-18T05:43:33;3.50;;;3.30;;
6442;SDS011;3254;47.372;8.512;2023-02-18T05:46:20;3.13;;;2.83;;
6442;SDS011;3254;47.372;8.512;2023-02-18T05:48:45;3.27;;;3.00;;
6442;SDS011;3254;47.372;8.512;2023-02-18T05:51:11;4.37;;;3.13;;
6442;SDS011;3254;47.372;8.512;2023-02-18T05:53:37;3.73;;;3.40;;
6442;SDS011;3254;47.372;8.512;2023-02-18T05:56:02;12.17;;;3.33;;
6442;SDS011;3254;47.372;8.512;2023-02-18T05:58:29;3.00;;;2.70;;
6442;SDS011;3254;47.372;8.512;2023-02-18T06:00:55;3.73;;;3.40;;
6442;SDS011;3254;47.372;8.512;2023-02-18T06:03:20;7.83;;;3.10;;
6442;SDS011;3254;47.372;8.512;2023-02-18T06:05:50;3.07;;;2.93;;
6442;SDS011;3254;47.372;8.512;2023-02-18T06:08:19;4.17;;;3.13;;
6442;SDS011;3254;47.372;8.512;2023-02-18T06:10:45;3.37;;;3.10;;
6442;SDS011;3254;47.372;8.512;2023-02-18T06:13:11;3.27;;;3.07;;
6442;SDS011;3254;47.372;8.512;2023-02-18T06:15:37;3.63;;;3.30;;
6442;SDS011;3254;47.372;8.512;2023-02-18T06:18:03;2.83;;;2.50;;
6442;SDS011;3254;47.372;8.512;2023-02-18T06:20:31;2.70;;;2.50;;
6442;SDS011;3254;47.372;8.512;2023-02-18T06:22:56;7.80;;;3.30;;
6442;SDS011;3254;47.372;8.512;2023-02-18T06:25:22;4.17;;;3.87;;
6442;SDS011;3254;47.372;8.512;2023-02-18T06:27:47;3.47;;;3.23;;
6442;SDS011;3254;47.372;8.512;2023-02-18T06:30:13;2.80;;;2.60;;
6442;SDS011;3254;47.372;8.512;2023-02-18T06:32:39;9.93;;;3.63;;
6442;SDS011;3254;47.372;8.512;2023-02-18T06:35:04;5.13;;;3.20;;
6442;SDS011;3254;47.372;8.512;2023-02-18T06:37:31;3.13;;;2.80;;
6442;SDS011;3254;47.372;8.512;2023-02-18T06:39:57;3.63;;;3.30;;
6442;SDS011;3254;47.372;8.512;2023-02-18T06:42:24;5.33;;;2.93;;
6442;SDS011;3254;47.372;8.512;2023-02-18T06:44:50;3.47;;;3.10;;
6442;SDS011;3254;47.372;8.512;2023-02-18T06:47:16;2.93;;;2.77;;
6442;SDS011;3254;47.372;8.512;2023-02-18T06:49:41;4.00;;;3.30;;
6442;SDS011;3254;47.372;8.512;2023-02-18T06:52:07;2.63;;;2.53;;
6442;SDS011;3254;47.372;8.512;2023-02-18T06:54:32;2.30;;;2.20;;
6442;SDS011;3254;47.372;8.512;2023-02-18T06:56:58;3.23;;;3.03;;
6442;SDS011;3254;47.372;8.512;2023-02-18T06:59:25;2.47;;;2.37;;
6442;SDS011;3254;47.372;8.512;2023-02-18T07:01:51;2.80;;;2.60;;
6442;SDS011;3254;47.372;8.512;2023-02-18T07:04:20;4.00;;;2.83;;
6442;SDS011;3254;47.372;8.512;2023-02-18T07:06:45;2.90;;;2.70;;
6442;SDS011;3254;47.372;8.512;2023-02-18T07:09:11;3.63;;;3.33;;
6442;SDS011;3254;47.372;8.512;2023-02-18T07:11:36;6.20;;;3.17;;
6442;SDS011;3254;47.372;8.512;2023-02-18T07:14:02;6.50;;;2.70;;
6442;SDS011;3254;47.372;8.512;2023-02-18T07:16:27;2.70;;;2.50;;
6442;SDS011;3254;47.372;8.512;2023-02-18T07:18:53;4.90;;;2.93;;
6442;SDS011;3254;47.372;8.512;2023-02-18T07:21:19;2.40;;;2.20;;
6442;SDS011;3254;47.372;8.512;2023-02-18T07:23:44;2.53;;;2.43;;
6442;SDS011;3254;47.372;8.512;2023-02-18T07:26:11;2.20;;;2.10;;
6442;SDS011;3254;47.372;8.512;2023-02-18T07:28:38;3.73;;;2.80;;
6442;SDS011;3254;47.372;8.512;2023-02-18T07:31:04;2.40;;;2.30;;
6442;SDS011;3254;47.372;8.512;2023-02-18T07:33:30;3.17;;;2.90;;
6442;SDS011;3254;47.372;8.512;2023-02-18T07:35:56;3.50;;;2.47;;
6442;SDS011;3254;47.372;8.512;2023-02-18T07:38:23;4.07;;;2.40;;
6442;SDS011;3254;47.372;8.512;2023-02-18T07:40:52;2.30;;;2.20;;
6442;SDS011;3254;47.372;8.512;2023-02-18T07:43:19;2.77;;;2.60;;
6442;SDS011;3254;47.372;8.512;2023-02-18T07:45:44;2.13;;;2.03;;
6442;SDS011;3254;47.372;8.512;2023-02-18T07:48:10;4.50;;;2.37;;
6442;SDS011;3254;47.372;8.512;2023-02-18T07:50:40;2.70;;;2.50;;
6442;SDS011;3254;47.372;8.512;2023-02-18T07:53:07;2.63;;;2.43;;
6442;SDS011;3254;47.372;8.512;2023-02-18T07:55:33;2.80;;;2.43;;
6442;SDS011;3254;47.372;8.512;2023-02-18T07:58:21;2.50;;;2.00;;
6442;SDS011;3254;47.372;8.512;2023-02-18T08:00:53;2.27;;;2.07;;
6442;SDS011;3254;47.372;8.512;2023-02-18T08:03:21;2.60;;;2.23;;
6442;SDS011;3254;47.372;8.512;2023-02-18T08:05:49;3.13;;;2.40;;
6442;SDS011;3254;47.372;8.512;2023-02-18T08:08:16;2.50;;;2.30;;
6442;SDS011;3254;47.372;8.512;2023-02-18T08:10:44;2.90;;;2.20;;
6442;SDS011;3254;47.372;8.512;2023-02-18T08:13:11;6.03;;;2.10;;
6442;SDS011;3254;47.372;8.512;2023-02-18T08:15:36;2.50;;;2.40;;
6442;SDS011;3254;47.372;8.512;2023-02-18T08:18:02;2.20;;;2.10;;
6442;SDS011;3254;47.372;8.512;2023-02-18T08:20:29;1.80;;;1.70;;
6442;SDS011;3254;47.372;8.512;2023-02-18T08:22:56;2.47;;;2.27;;
6442;SDS011;3254;47.372;8.512;2023-02-18T08:25:21;2.57;;;1.90;;
6442;SDS011;3254;47.372;8.512;2023-02-18T08:27:47;3.30;;;2.20;;
6442;SDS011;3254;47.372;8.512;2023-02-18T08:30:13;2.53;;;2.33;;
6442;SDS011;3254;47.372;8.512;2023-02-18T08:32:41;3.23;;;2.10;;
6442;SDS011;3254;47.372;8.512;2023-02-18T08:35:08;2.53;;;2.07;;
6442;SDS011;3254;47.372;8.512;2023-02-18T08:37:35;2.33;;;2.20;;
6442;SDS011;3254;47.372;8.512;2023-02-18T08:40:01;3.67;;;2.40;;
6442;SDS011;3254;47.372;8.512;2023-02-18T08:42:29;2.47;;;2.30;;
6442;SDS011;3254;47.372;8.512;2023-02-18T08:44:55;2.60;;;2.40;;
6442;SDS011;3254;47.372;8.512;2023-02-18T08:47:21;3.20;;;2.43;;
6442;SDS011;3254;47.372;8.512;2023-02-18T08:49:46;2.57;;;2.37;;
6442;SDS011;3254;47.372;8.512;2023-02-18T08:52:13;2.50;;;2.30;;
6442;SDS011;3254;47.372;8.512;2023-02-18T08:54:39;2.30;;;2.20;;
6442;SDS011;3254;47.372;8.512;2023-02-18T08:57:04;2.57;;;2.37;;
6442;SDS011;3254;47.372;8.512;2023-02-18T08:59:30;2.70;;;2.40;;
6442;SDS011;3254;47.372;8.512;2023-02-18T09:01:56;4.40;;;2.20;;
6442;SDS011;3254;47.372;8.512;2023-02-18T09:04:21;2.67;;;2.57;;
6442;SDS011;3254;47.372;8.512;2023-02-18T09:06:47;3.90;;;2.43;;
6442;SDS011;3254;47.372;8.512;2023-02-18T09:09:15;2.70;;;2.50;;
6442;SDS011;3254;47.372;8.512;2023-02-18T09:11:43;4.97;;;2.13;;
6442;SDS011;3254;47.372;8.512;2023-02-18T09:14:09;4.80;;;2.90;;
6442;SDS011;3254;47.372;8.512;2023-02-18T09:16:35;2.10;;;2.00;;
6442;SDS011;3254;47.372;8.512;2023-02-18T09:19:05;6.00;;;2.87;;
6442;SDS011;3254;47.372;8.512;2023-02-18T09:21:33;3.00;;;2.70;;
6442;SDS011;3254;47.372;8.512;2023-02-18T09:24:00;3.30;;;2.70;;
6442;SDS011;3254;47.372;8.512;2023-02-18T09:26:26;4.27;;;2.80;;
6442;SDS011;3254;47.372;8.512;2023-02-18T09:28:52;2.63;;;2.43;;
6442;SDS011;3254;47.372;8.512;2023-02-18T09:31:22;2.67;;;2.57;;
6442;SDS011;3254;47.372;8.512;2023-02-18T09:33:52;2.10;;;2.00;;
6442;SDS011;3254;47.372;8.512;2023-02-18T09:36:21;1.63;;;1.53;;
6442;SDS011;3254;47.372;8.512;2023-02-18T09:38:50;2.20;;;2.10;;
6442;SDS011;3254;47.372;8.512;2023-02-18T09:41:36;3.50;;;2.50;;
6442;SDS011;3254;47.372;8.512;2023-02-18T09:44:11;3.30;;;2.13;;
6442;SDS011;3254;47.372;8.512;2023-02-18T09:49:40;2.17;;;2.07;;
6442;SDS011;3254;47.372;8.512;2023-02-18T09:52:13;2.50;;;2.40;;
6442;SDS011;3254;47.372;8.512;2023-02-18T09:54:45;1.87;;;1.77;;
6442;SDS011;3254;47.372;8.512;2023-02-18T09:57:26;3.90;;;2.87;;
6442;SDS011;3254;47.372;8.512;2023-02-18T10:00:06;2.00;;;1.90;;
6442;SDS011;3254;47.372;8.512;2023-02-18T10:02:44;2.60;;;2.40;;
6442;SDS011;3254;47.372;8.512;2023-02-18T10:05:22;2.33;;;2.13;;
6442;SDS011;3254;47.372;8.512;2023-02-18T10:07:50;2.90;;;2.17;;
6442;SDS011;3254;47.372;8.512;2023-02-18T10:10:34;5.10;;;2.77;;
6442;SDS011;3254;47.372;8.512;2023-02-18T10:13:09;5.47;;;2.43;;
6442;SDS011;3254;47.372;8.512;2023-02-18T10:15:41;4.67;;;2.37;;
6442;SDS011;3254;47.372;8.512;2023-02-18T10:18:19;2.30;;;2.20;;
6442;SDS011;3254;47.372;8.512;2023-02-18T10:23:31;2.50;;;2.30;;
6442;SDS011;3254;47.372;8.512;2023-02-18T10:26:04;2.13;;;1.70;;
6442;SDS011;3254;47.372;8.512;2023-02-18T10:28:35;3.10;;;2.00;;
6442;SDS011;3254;47.372;8.512;2023-02-18T10:31:03;1.73;;;1.63;;
6442;SDS011;3254;47.372;8.512;2023-02-18T10:36:23;1.70;;;1.60;;
6442;SDS011;3254;47.372;8.512;2023-02-18T10:39:22;2.30;;;1.90;;
6442;SDS011;3254;47.372;8.512;2023-02-18T10:50:31;2.60;;;1.00;;
6442;SDS011;3254;47.372;8.512;2023-02-18T10:55:44;1.57;;;1.40;;
6442;SDS011;3254;47.372;8.512;2023-02-18T10:58:35;3.30;;;1.20;;
6442;SDS011;3254;47.372;8.512;2023-02-18T11:01:15;1.93;;;1.20;;
6442;SDS011;3254;47.372;8.512;2023-02-18T11:03:51;1.60;;;1.50;;
6442;SDS011;3254;47.372;8.512;2023-02-18T11:06:39;1.50;;;1.27;;
6442;SDS011;3254;47.372;8.512;2023-02-18T11:09:25;3.93;;;1.30;;
6442;SDS011;3254;47.372;8.512;2023-02-18T11:11:58;1.30;;;1.10;;
6442;SDS011;3254;47.372;8.512;2023-02-18T11:14:41;2.67;;;1.40;;
6442;SDS011;3254;47.372;8.512;2023-02-18T11:19:45;2.60;;;1.30;;
6442;SDS011;3254;47.372;8.512;2023-02-18T11:22:17;1.40;;;1.30;;
6442;SDS011;3254;47.372;8.512;2023-02-18T11:24:48;1.43;;;1.33;;
6442;SDS011;3254;47.372;8.512;2023-02-18T11:27:21;1.63;;;1.53;;
6442;SDS011;3254;47.372;8.512;2023-02-18T11:29:53;1.53;;;1.43;;
6442;SDS011;3254;47.372;8.512;2023-02-18T11:32:28;1.93;;;1.80;;
6442;SDS011;3254;47.372;8.512;2023-02-18T11:34:54;4.40;;;1.33;;
6442;SDS011;3254;47.372;8.512;2023-02-18T11:37:21;1.27;;;1.17;;
6442;SDS011;3254;47.372;8.512;2023-02-18T11:39:50;2.40;;;1.50;;
6442;SDS011;3254;47.372;8.512;2023-02-18T11:42:20;5.03;;;1.60;;
6442;SDS011;3254;47.372;8.512;2023-02-18T11:44:55;1.70;;;1.60;;
6442;SDS011;3254;47.372;8.512;2023-02-18T11:47:25;1.87;;;1.60;;
6442;SDS011;3254;47.372;8.512;2023-02-18T11:50:22;1.83;;;1.57;;
6442;SDS011;3254;47.372;8.512;2023-02-18T11:52:49;1.73;;;1.30;;
6442;SDS011;3254;47.372;8.512;2023-02-18T11:55:18;1.40;;;1.30;;
6442;SDS011;3254;47.372;8.512;2023-02-18T11:57:58;3.27;;;1.27;;
6442;SDS011;3254;47.372;8.512;2023-02-18T12:00:43;1.93;;;1.70;;
6442;SDS011;3254;47.372;8.512;2023-02-18T12:03:27;1.60;;;1.50;;
6442;SDS011;3254;47.372;8.512;2023-02-18T12:06:03;1.97;;;1.73;;
6442;SDS011;3254;47.372;8.512;2023-02-18T12:08:38;1.27;;;1.17;;
6442;SDS011;3254;47.372;8.512;2023-02-18T12:11:14;2.17;;;1.47;;
6442;SDS011;3254;47.372;8.512;2023-02-18T12:13:51;1.80;;;1.70;;
6442;SDS011;3254;47.372;8.512;2023-02-18T12:19:21;1.80;;;1.70;;
6442;SDS011;3254;47.372;8.512;2023-02-18T12:22:15;1.60;;;1.50;;
6442;SDS011;3254;47.372;8.512;2023-02-18T12:36:19;1.97;;;1.73;;
6442;SDS011;3254;47.372;8.512;2023-02-18T12:38:58;1.80;;;1.70;;
6442;SDS011;3254;47.372;8.512;2023-02-18T12:44:40;1.70;;;1.60;;
6442;SDS011;3254;47.372;8.512;2023-02-18T12:50:30;1.60;;;1.50;;
6442;SDS011;3254;47.372;8.512;2023-02-18T12:53:52;1.47;;;1.37;;
6442;SDS011;3254;47.372;8.512;2023-02-18T12:57:12;1.80;;;1.70;;
6442;SDS011;3254;47.372;8.512;2023-02-18T13:10:57;1.87;;;1.77;;
6442;SDS011;3254;47.372;8.512;2023-02-18T13:13:39;1.90;;;1.80;;
6442;SDS011;3254;47.372;8.512;2023-02-18T13:16:29;2.50;;;2.00;;
6442;SDS011;3254;47.372;8.512;2023-02-18T13:19:03;2.10;;;2.00;;
6442;SDS011;3254;47.372;8.512;2023-02-18T13:21:40;2.07;;;1.97;;
6442;SDS011;3254;47.372;8.512;2023-02-18T13:24:09;3.20;;;1.57;;
6442;SDS011;3254;47.372;8.512;2023-02-18T13:26:39;1.60;;;1.50;;
6442;SDS011;3254;47.372;8.512;2023-02-18T13:40:26;3.87;;;1.50;;
6442;SDS011;3254;47.372;8.512;2023-02-18T13:42:54;3.40;;;1.43;;
6442;SDS011;3254;47.372;8.512;2023-02-18T13:45:43;1.33;;;1.23;;
6442;SDS011;3254;47.372;8.512;2023-02-18T13:48:50;1.57;;;1.20;;
6442;SDS011;3254;47.372;8.512;2023-02-18T13:51:28;3.43;;;1.20;;
6442;SDS011;3254;47.372;8.512;2023-02-18T13:53:59;1.50;;;1.40;;
6442;SDS011;3254;47.372;8.512;2023-02-18T13:56:30;2.50;;;1.23;;
6442;SDS011;3254;47.372;8.512;2023-02-18T13:59:09;3.77;;;1.77;;
6442;SDS011;3254;47.372;8.512;2023-02-18T14:01:46;1.30;;;1.20;;
6442;SDS011;3254;47.372;8.512;2023-02-18T14:07:46;1.80;;;1.70;;
6442;SDS011;3254;47.372;8.512;2023-02-18T14:09:48;1.50;;;1.40;;
6442;SDS011;3254;47.372;8.512;2023-02-18T14:12:36;1.73;;;1.60;;
6442;SDS011;3254;47.372;8.512;2023-02-18T14:28:41;1.90;;;1.80;;
6442;SDS011;3254;47.372;8.512;2023-02-18T14:45:28;4.63;;;1.70;;
6442;SDS011;3254;47.372;8.512;2023-02-18T14:50:43;5.70;;;1.27;;
6442;SDS011;3254;47.372;8.512;2023-02-18T14:53:17;2.63;;;1.30;;
6442;SDS011;3254;47.372;8.512;2023-02-18T14:55:47;4.13;;;1.17;;
6442;SDS011;3254;47.372;8.512;2023-02-18T14:58:27;2.90;;;1.40;;
6442;SDS011;3254;47.372;8.512;2023-02-18T15:01:04;1.77;;;1.67;;
6442;SDS011;3254;47.372;8.512;2023-02-18T15:03:51;1.00;;;0.90;;
6442;SDS011;3254;47.372;8.512;2023-02-18T15:09:18;1.20;;;1.00;;
6442;SDS011;3254;47.372;8.512;2023-02-18T15:11:49;3.20;;;0.90;;
6442;SDS011;3254;47.372;8.512;2023-02-18T15:14:30;3.70;;;1.13;;
6442;SDS011;3254;47.372;8.512;2023-02-18T15:17:05;1.37;;;1.27;;
6442;SDS011;3254;47.372;8.512;2023-02-18T15:19:41;1.77;;;1.20;;
6442;SDS011;3254;47.372;8.512;2023-02-18T15:22:18;3.23;;;1.33;;
6442;SDS011;3254;47.372;8.512;2023-02-18T15:24:47;2.60;;;1.10;;
6442;SDS011;3254;47.372;8.512;2023-02-18T15:27:18;1.10;;;1.00;;
6442;SDS011;3254;47.372;8.512;2023-02-18T15:29:51;1.10;;;0.90;;
6442;SDS011;3254;47.372;8.512;2023-02-18T15:32:25;0.90;;;0.83;;
6442;SDS011;3254;47.372;8.512;2023-02-18T15:34:53;8.37;;;1.10;;
6442;SDS011;3254;47.372;8.512;2023-02-18T15:37:22;1.10;;;0.90;;
6442;SDS011;3254;47.372;8.512;2023-02-18T15:39:48;1.10;;;0.90;;
6442;SDS011;3254;47.372;8.512;2023-02-18T15:42:25;2.40;;;0.80;;
6442;SDS011;3254;47.372;8.512;2023-02-18T15:45:08;1.10;;;1.00;;
6442;SDS011;3254;47.372;8.512;2023-02-18T15:48:01;1.30;;;1.20;;
6442;SDS011;3254;47.372;8.512;2023-02-18T15:50:43;1.53;;;1.00;;
6442;SDS011;3254;47.372;8.512;2023-02-18T15:53:15;2.70;;;1.03;;
6442;SDS011;3254;47.372;8.512;2023-02-18T15:55:45;0.90;;;0.73;;
6442;SDS011;3254;47.372;8.512;2023-02-18T15:58:17;1.30;;;1.00;;
6442;SDS011;3254;47.372;8.512;2023-02-18T16:00:50;1.50;;;1.10;;
6442;SDS011;3254;47.372;8.512;2023-02-18T16:03:21;1.53;;;0.80;;
6442;SDS011;3254;47.372;8.512;2023-02-18T16:05:47;1.53;;;0.90;;
6442;SDS011;3254;47.372;8.512;2023-02-18T16:08:22;1.60;;;1.07;;
6442;SDS011;3254;47.372;8.512;2023-02-18T16:11:01;1.13;;;0.93;;
6442;SDS011;3254;47.372;8.512;2023-02-18T16:13:33;1.00;;;0.90;;
6442;SDS011;3254;47.372;8.512;2023-02-18T16:16:00;2.60;;;1.00;;
6442;SDS011;3254;47.372;8.512;2023-02-18T16:18:28;1.30;;;1.20;;
6442;SDS011;3254;47.372;8.512;2023-02-18T16:21:43;1.87;;;1.40;;
6442;SDS011;3254;47.372;8.512;2023-02-18T16:24:21;1.20;;;1.10;;
6442;SDS011;3254;47.372;8.512;2023-02-18T16:26:58;1.03;;;0.93;;
6442;SDS011;3254;47.372;8.512;2023-02-18T16:29:31;1.10;;;1.00;;
6442;SDS011;3254;47.372;8.512;2023-02-18T16:32:05;1.13;;;1.03;;
6442;SDS011;3254;47.372;8.512;2023-02-18T16:34:31;2.20;;;1.10;;
6442;SDS011;3254;47.372;8.512;2023-02-18T16:36:57;1.20;;;1.10;;
6442;SDS011;3254;47.372;8.512;2023-02-18T16:39:42;1.63;;;1.13;;
6442;SDS011;3254;47.372;8.512;2023-02-18T16:42:08;1.10;;;0.97;;
6442;SDS011;3254;47.372;8.512;2023-02-18T16:44:35;1.20;;;1.10;;
6442;SDS011;3254;47.372;8.512;2023-02-18T16:47:01;3.03;;;1.00;;
6442;SDS011;3254;47.372;8.512;2023-02-18T16:49:27;1.10;;;1.00;;
6442;SDS011;3254;47.372;8.512;2023-02-18T16:51:54;5.13;;;1.20;;
6442;SDS011;3254;47.372;8.512;2023-02-18T16:54:20;2.90;;;1.23;;
6442;SDS011;3254;47.372;8.512;2023-02-18T16:56:46;1.17;;;1.07;;
6442;SDS011;3254;47.372;8.512;2023-02-18T16:59:13;1.00;;;0.90;;
6442;SDS011;3254;47.372;8.512;2023-02-18T17:01:41;2.07;;;1.00;;
6442;SDS011;3254;47.372;8.512;2023-02-18T17:04:14;2.03;;;1.43;;
6442;SDS011;3254;47.372;8.512;2023-02-18T17:06:43;1.20;;;1.10;;
6442;SDS011;3254;47.372;8.512;2023-02-18T17:09:17;1.27;;;1.17;;
6442;SDS011;3254;47.372;8.512;2023-02-18T17:11:45;1.10;;;1.00;;
6442;SDS011;3254;47.372;8.512;2023-02-18T17:14:17;1.60;;;1.50;;
6442;SDS011;3254;47.372;8.512;2023-02-18T17:16:44;2.23;;;1.90;;
6442;SDS011;3254;47.372;8.512;2023-02-18T17:19:16;2.60;;;1.30;;
6442;SDS011;3254;47.372;8.512;2023-02-18T17:21:43;2.17;;;1.00;;
6442;SDS011;3254;47.372;8.512;2023-02-18T17:24:12;1.60;;;1.50;;
6442;SDS011;3254;47.372;8.512;2023-02-18T17:26:39;1.50;;;1.40;;
6442;SDS011;3254;47.372;8.512;2023-02-18T17:29:05;1.53;;;1.43;;
6442;SDS011;3254;47.372;8.512;2023-02-18T17:31:42;1.40;;;1.30;;
6442;SDS011;3254;47.372;8.512;2023-02-18T17:34:12;1.60;;;1.50;;
6442;SDS011;3254;47.372;8.512;2023-02-18T17:36:48;2.00;;;1.90;;
6442;SDS011;3254;47.372;8.512;2023-02-18T17:39:14;2.20;;;2.03;;
6442;SDS011;3254;47.372;8.512;2023-02-18T17:41:44;1.80;;;1.70;;
6442;SDS011;3254;47.372;8.512;2023-02-18T17:44:16;2.23;;;1.50;;
6442;SDS011;3254;47.372;8.512;2023-02-18T17:46:44;1.73;;;1.30;;
6442;SDS011;3254;47.372;8.512;2023-02-18T17:49:10;2.70;;;2.00;;
6442;SDS011;3254;47.372;8.512;2023-02-18T17:51:36;2.00;;;1.70;;
6442;SDS011;3254;47.372;8.512;2023-02-18T17:54:13;2.00;;;1.77;;
6442;SDS011;3254;47.372;8.512;2023-02-18T17:56:41;4.50;;;2.10;;
6442;SDS011;3254;47.372;8.512;2023-02-18T17:59:07;1.97;;;1.87;;